sensor_id;sensor_type;location;lat;lon;timestamp;temperature;humidity
5278;DHT22;2662;51.194;6.614;2022-10-31T00:02:17;16.20;99.90
5278;DHT22;2662;51.194;6.614;2022-10-31T00:04:44;16.00;99.90
5278;DHT22;2662;51.194;6.614;2022-10-31T00:07:11;15.80;99.90
5278;DHT22;2662;51.194;6.614;2022-10-31T00:09:37;15.80;99.90
5278;DHT22;2662;51.194;6.614;2022-10-31T00:12:04;15.70;99.90
5278;DHT22;2662;51.194;6.614;2022-10-31T00:14:32;15.70;99.90
5278;DHT22;2662;51.194;6.614;2022-10-31T00:16:59;15.70;99.90
5278;DHT22;2662;51.194;6.614;2022-10-31T00:19:26;15.70;99.90
5278;DHT22;2662;51.194;6.614;2022-10-31T00:21:53;15.70;99.90
5278;DHT22;2662;51.194;6.614;2022-10-31T00:24:19;15.60;99.90
5278;DHT22;2662;51.194;6.614;2022-10-31T00:26:46;15.60;99.90
5278;DHT22;2662;51.194;6.614;2022-10-31T00:29:13;15.60;99.90
5278;DHT22;2662;51.194;6.614;2022-10-31T00:31:41;15.70;99.90
5278;DHT22;2662;51.194;6.614;2022-10-31T00:34:07;15.70;99.90
5278;DHT22;2662;51.194;6.614;2022-10-31T00:36:34;15.70;99.90
5278;DHT22;2662;51.194;6.614;2022-10-31T00:39:01;15.70;99.90
5278;DHT22;2662;51.194;6.614;2022-10-31T00:41:27;15.80;99.90
5278;DHT22;2662;51.194;6.614;2022-10-31T00:43:55;15.90;99.90
5278;DHT22;2662;51.194;6.614;2022-10-31T00:46:21;15.90;99.90
5278;DHT22;2662;51.194;6.614;2022-10-31T00:48:49;16.00;99.90
5278;DHT22;2662;51.194;6.614;2022-10-31T00:51:16;16.00;99.90
5278;DHT22;2662;51.194;6.614;2022-10-31T00:53:43;16.10;99.90
5278;DHT22;2662;51.194;6.614;2022-10-31T00:56:10;16.20;99.90
5278;DHT22;2662;51.194;6.614;2022-10-31T00:58:36;16.20;99.90
5278;DHT22;2662;51.194;6.614;2022-10-31T01:01:03;16.20;99.90
5278;DHT22;2662;51.194;6.614;2022-10-31T01:03:32;16.20;99.90
5278;DHT22;2662;51.194;6.614;2022-10-31T01:06:03;16.20;99.90
5278;DHT22;2662;51.194;6.614;2022-10-31T01:08:30;16.20;99.90
5278;DHT22;2662;51.194;6.614;2022-10-31T01:11:02;16.10;99.90
5278;DHT22;2662;51.194;6.614;2022-10-31T01:13:29;16.20;99.90
5278;DHT22;2662;51.194;6.614;2022-10-31T01:15:58;16.20;99.90
5278;DHT22;2662;51.194;6.614;2022-10-31T01:18:25;16.20;99.90
5278;DHT22;2662;51.194;6.614;2022-10-31T01:21:05;16.20;99.90
5278;DHT22;2662;51.194;6.614;2022-10-31T01:23:32;16.20;99.90
5278;DHT22;2662;51.194;6.614;2022-10-31T01:26:01;16.20;99.90
5278;DHT22;2662;51.194;6.614;2022-10-31T01:28:27;16.20;99.90
5278;DHT22;2662;51.194;6.614;2022-10-31T01:30:54;16.10;99.90
5278;DHT22;2662;51.194;6.614;2022-10-31T01:33:21;16.10;99.90
5278;DHT22;2662;51.194;6.614;2022-10-31T01:35:47;16.10;99.90
5278;DHT22;2662;51.194;6.614;2022-10-31T01:38:16;15.90;99.90
5278;DHT22;2662;51.194;6.614;2022-10-31T01:40:42;15.80;99.90
5278;DHT22;2662;51.194;6.614;2022-10-31T01:43:12;15.80;99.90
5278;DHT22;2662;51.194;6.614;2022-10-31T01:45:40;15.80;99.90
5278;DHT22;2662;51.194;6.614;2022-10-31T01:48:12;15.60;99.90
5278;DHT22;2662;51.194;6.614;2022-10-31T01:50:40;15.50;99.90
5278;DHT22;2662;51.194;6.614;2022-10-31T01:53:09;15.40;99.90
5278;DHT22;2662;51.194;6.614;2022-10-31T01:55:40;15.30;99.90
5278;DHT22;2662;51.194;6.614;2022-10-31T01:58:11;15.30;99.90
5278;DHT22;2662;51.194;6.614;2022-10-31T02:00:41;15.30;99.90
5278;DHT22;2662;51.194;6.614;2022-10-31T02:03:09;15.20;99.90
5278;DHT22;2662;51.194;6.614;2022-10-31T02:05:37;15.10;99.90
5278;DHT22;2662;51.194;6.614;2022-10-31T02:08:06;15.00;99.90
5278;DHT22;2662;51.194;6.614;2022-10-31T02:10:37;15.00;99.90
5278;DHT22;2662;51.194;6.614;2022-10-31T02:13:07;14.90;99.90
5278;DHT22;2662;51.194;6.614;2022-10-31T02:15:35;14.90;99.90
5278;DHT22;2662;51.194;6.614;2022-10-31T02:18:03;14.80;99.90
5278;DHT22;2662;51.194;6.614;2022-10-31T02:20:33;15.00;99.90
5278;DHT22;2662;51.194;6.614;2022-10-31T02:29:29;15.40;99.90
5278;DHT22;2662;51.194;6.614;2022-10-31T02:32:09;15.40;99.90
5278;DHT22;2662;51.194;6.614;2022-10-31T02:34:45;15.50;99.90
5278;DHT22;2662;51.194;6.614;2022-10-31T02:37:18;15.50;99.90
5278;DHT22;2662;51.194;6.614;2022-10-31T02:39:51;15.60;99.90
5278;DHT22;2662;51.194;6.614;2022-10-31T02:42:26;15.60;99.90
5278;DHT22;2662;51.194;6.614;2022-10-31T02:44:59;15.60;99.90
5278;DHT22;2662;51.194;6.614;2022-10-31T02:47:32;15.60;99.90
5278;DHT22;2662;51.194;6.614;2022-10-31T02:50:03;15.60;99.90
5278;DHT22;2662;51.194;6.614;2022-10-31T02:52:33;15.60;99.90
5278;DHT22;2662;51.194;6.614;2022-10-31T02:55:10;15.60;99.90
5278;DHT22;2662;51.194;6.614;2022-10-31T02:57:38;15.50;99.90
5278;DHT22;2662;51.194;6.614;2022-10-31T03:00:08;15.50;99.90
5278;DHT22;2662;51.194;6.614;2022-10-31T03:02:45;15.40;99.90
5278;DHT22;2662;51.194;6.614;2022-10-31T03:05:27;15.30;99.90
5278;DHT22;2662;51.194;6.614;2022-10-31T03:08:05;15.30;99.90
5278;DHT22;2662;51.194;6.614;2022-10-31T03:10:38;15.20;99.90
5278;DHT22;2662;51.194;6.614;2022-10-31T03:13:10;15.20;99.90
5278;DHT22;2662;51.194;6.614;2022-10-31T03:15:39;15.10;99.90
5278;DHT22;2662;51.194;6.614;2022-10-31T03:18:10;15.10;99.90
5278;DHT22;2662;51.194;6.614;2022-10-31T03:20:41;15.00;99.90
5278;DHT22;2662;51.194;6.614;2022-10-31T03:23:10;14.90;99.90
5278;DHT22;2662;51.194;6.614;2022-10-31T03:25:39;14.80;99.90
5278;DHT22;2662;51.194;6.614;2022-10-31T03:28:08;14.70;99.90
5278;DHT22;2662;51.194;6.614;2022-10-31T03:30:37;14.60;99.90
5278;DHT22;2662;51.194;6.614;2022-10-31T03:33:09;14.50;99.90
5278;DHT22;2662;51.194;6.614;2022-10-31T03:35:39;14.50;99.90
5278;DHT22;2662;51.194;6.614;2022-10-31T03:38:08;14.50;99.90
5278;DHT22;2662;51.194;6.614;2022-10-31T03:40:37;14.40;99.90
5278;DHT22;2662;51.194;6.614;2022-10-31T03:43:09;14.30;99.90
5278;DHT22;2662;51.194;6.614;2022-10-31T03:45:40;14.20;99.90
5278;DHT22;2662;51.194;6.614;2022-10-31T03:48:09;14.20;99.90
5278;DHT22;2662;51.194;6.614;2022-10-31T03:50:43;14.20;99.90
5278;DHT22;2662;51.194;6.614;2022-10-31T03:53:16;14.10;99.90
5278;DHT22;2662;51.194;6.614;2022-10-31T03:55:50;14.10;99.90
5278;DHT22;2662;51.194;6.614;2022-10-31T03:58:21;13.90;99.90
5278;DHT22;2662;51.194;6.614;2022-10-31T04:00:51;13.90;99.90
5278;DHT22;2662;51.194;6.614;2022-10-31T04:03:24;13.90;99.90
5278;DHT22;2662;51.194;6.614;2022-10-31T04:05:54;13.90;99.90
5278;DHT22;2662;51.194;6.614;2022-10-31T04:08:24;13.90;99.90
5278;DHT22;2662;51.194;6.614;2022-10-31T04:10:54;13.80;99.90
5278;DHT22;2662;51.194;6.614;2022-10-31T04:13:26;13.80;99.90
5278;DHT22;2662;51.194;6.614;2022-10-31T04:15:55;13.80;99.90
5278;DHT22;2662;51.194;6.614;2022-10-31T04:18:24;13.70;99.90
5278;DHT22;2662;51.194;6.614;2022-10-31T04:21:00;13.80;99.90
5278;DHT22;2662;51.194;6.614;2022-10-31T04:23:27;13.70;99.90
5278;DHT22;2662;51.194;6.614;2022-10-31T04:25:54;13.70;99.90
5278;DHT22;2662;51.194;6.614;2022-10-31T04:28:21;13.60;99.90
5278;DHT22;2662;51.194;6.614;2022-10-31T04:30:48;13.60;99.90
5278;DHT22;2662;51.194;6.614;2022-10-31T04:33:15;13.60;99.90
5278;DHT22;2662;51.194;6.614;2022-10-31T04:35:43;13.60;99.90
5278;DHT22;2662;51.194;6.614;2022-10-31T04:38:10;13.60;99.90
5278;DHT22;2662;51.194;6.614;2022-10-31T04:40:37;13.70;99.90
5278;DHT22;2662;51.194;6.614;2022-10-31T04:43:03;13.70;99.90
5278;DHT22;2662;51.194;6.614;2022-10-31T04:45:30;13.60;99.90
5278;DHT22;2662;51.194;6.614;2022-10-31T04:47:57;13.60;99.90
5278;DHT22;2662;51.194;6.614;2022-10-31T04:50:23;13.60;99.90
5278;DHT22;2662;51.194;6.614;2022-10-31T04:52:51;13.50;99.90
5278;DHT22;2662;51.194;6.614;2022-10-31T04:55:18;13.50;99.90
5278;DHT22;2662;51.194;6.614;2022-10-31T04:57:46;13.50;99.90
5278;DHT22;2662;51.194;6.614;2022-10-31T05:00:15;13.50;99.90
5278;DHT22;2662;51.194;6.614;2022-10-31T05:02:44;13.50;99.90
5278;DHT22;2662;51.194;6.614;2022-10-31T05:05:11;13.50;99.90
5278;DHT22;2662;51.194;6.614;2022-10-31T05:07:41;13.50;99.90
5278;DHT22;2662;51.194;6.614;2022-10-31T05:10:11;13.60;99.90
5278;DHT22;2662;51.194;6.614;2022-10-31T05:12:45;13.60;99.90
5278;DHT22;2662;51.194;6.614;2022-10-31T05:15:13;13.60;99.90
5278;DHT22;2662;51.194;6.614;2022-10-31T05:17:40;13.60;99.90
5278;DHT22;2662;51.194;6.614;2022-10-31T05:20:07;13.60;99.90
5278;DHT22;2662;51.194;6.614;2022-10-31T05:22:34;13.60;99.90
5278;DHT22;2662;51.194;6.614;2022-10-31T05:25:01;13.70;99.90
5278;DHT22;2662;51.194;6.614;2022-10-31T05:27:29;13.60;99.90
5278;DHT22;2662;51.194;6.614;2022-10-31T05:29:55;13.60;99.90
5278;DHT22;2662;51.194;6.614;2022-10-31T05:32:22;13.60;99.90
5278;DHT22;2662;51.194;6.614;2022-10-31T05:34:49;13.60;99.90
5278;DHT22;2662;51.194;6.614;2022-10-31T05:37:15;13.60;99.90
5278;DHT22;2662;51.194;6.614;2022-10-31T05:39:42;13.60;99.90
5278;DHT22;2662;51.194;6.614;2022-10-31T05:42:09;13.60;99.90
5278;DHT22;2662;51.194;6.614;2022-10-31T05:44:37;13.60;99.90
5278;DHT22;2662;51.194;6.614;2022-10-31T05:47:04;13.60;99.90
5278;DHT22;2662;51.194;6.614;2022-10-31T05:49:31;13.60;99.90
5278;DHT22;2662;51.194;6.614;2022-10-31T05:51:58;13.60;99.90
5278;DHT22;2662;51.194;6.614;2022-10-31T05:54:24;13.60;99.90
5278;DHT22;2662;51.194;6.614;2022-10-31T05:56:51;13.60;99.90
5278;DHT22;2662;51.194;6.614;2022-10-31T05:59:18;13.60;99.90
5278;DHT22;2662;51.194;6.614;2022-10-31T06:01:46;13.60;99.90
5278;DHT22;2662;51.194;6.614;2022-10-31T06:04:13;13.60;99.90
5278;DHT22;2662;51.194;6.614;2022-10-31T06:06:39;13.50;99.90
5278;DHT22;2662;51.194;6.614;2022-10-31T06:09:06;13.50;99.90
5278;DHT22;2662;51.194;6.614;2022-10-31T06:11:33;13.50;99.90
5278;DHT22;2662;51.194;6.614;2022-10-31T06:13:59;13.50;99.90
5278;DHT22;2662;51.194;6.614;2022-10-31T06:16:26;13.50;99.90
5278;DHT22;2662;51.194;6.614;2022-10-31T06:18:54;13.40;99.90
5278;DHT22;2662;51.194;6.614;2022-10-31T06:21:21;13.40;99.90
5278;DHT22;2662;51.194;6.614;2022-10-31T06:23:47;13.40;99.90
5278;DHT22;2662;51.194;6.614;2022-10-31T06:26:14;13.40;99.90
5278;DHT22;2662;51.194;6.614;2022-10-31T06:28:41;13.40;99.90
5278;DHT22;2662;51.194;6.614;2022-10-31T06:31:07;13.40;99.90
5278;DHT22;2662;51.194;6.614;2022-10-31T06:33:34;13.40;99.90
5278;DHT22;2662;51.194;6.614;2022-10-31T06:36:03;13.30;99.90
5278;DHT22;2662;51.194;6.614;2022-10-31T06:38:29;13.40;99.90
5278;DHT22;2662;51.194;6.614;2022-10-31T06:40:56;13.40;99.90
5278;DHT22;2662;51.194;6.614;2022-10-31T06:43:23;13.40;99.90
5278;DHT22;2662;51.194;6.614;2022-10-31T06:45:50;13.40;99.90
5278;DHT22;2662;51.194;6.614;2022-10-31T06:48:16;13.40;99.90
5278;DHT22;2662;51.194;6.614;2022-10-31T06:50:43;13.40;99.90
5278;DHT22;2662;51.194;6.614;2022-10-31T06:53:11;13.40;99.90
5278;DHT22;2662;51.194;6.614;2022-10-31T06:55:39;13.50;99.90
5278;DHT22;2662;51.194;6.614;2022-10-31T06:58:08;13.50;99.90
5278;DHT22;2662;51.194;6.614;2022-10-31T07:00:35;13.50;99.90
5278;DHT22;2662;51.194;6.614;2022-10-31T07:03:05;13.50;99.90
5278;DHT22;2662;51.194;6.614;2022-10-31T07:05:32;13.60;99.90
5278;DHT22;2662;51.194;6.614;2022-10-31T07:08:00;13.70;99.90
5278;DHT22;2662;51.194;6.614;2022-10-31T07:10:30;13.80;99.90
5278;DHT22;2662;51.194;6.614;2022-10-31T07:12:59;13.90;99.90
5278;DHT22;2662;51.194;6.614;2022-10-31T07:15:27;14.00;99.90
5278;DHT22;2662;51.194;6.614;2022-10-31T07:17:58;14.00;99.90
5278;DHT22;2662;51.194;6.614;2022-10-31T07:20:25;14.10;99.90
5278;DHT22;2662;51.194;6.614;2022-10-31T07:22:52;14.10;99.90
5278;DHT22;2662;51.194;6.614;2022-10-31T07:25:18;14.10;99.90
5278;DHT22;2662;51.194;6.614;2022-10-31T07:27:46;14.20;99.90
5278;DHT22;2662;51.194;6.614;2022-10-31T07:30:13;14.30;99.90
5278;DHT22;2662;51.194;6.614;2022-10-31T07:32:43;14.30;99.90
5278;DHT22;2662;51.194;6.614;2022-10-31T07:35:11;14.40;99.90
5278;DHT22;2662;51.194;6.614;2022-10-31T07:37:38;14.50;99.90
5278;DHT22;2662;51.194;6.614;2022-10-31T07:40:06;14.60;99.90
5278;DHT22;2662;51.194;6.614;2022-10-31T07:42:34;14.70;99.90
5278;DHT22;2662;51.194;6.614;2022-10-31T07:45:03;14.90;99.90
5278;DHT22;2662;51.194;6.614;2022-10-31T07:47:37;15.00;99.90
5278;DHT22;2662;51.194;6.614;2022-10-31T07:50:04;15.10;99.90
5278;DHT22;2662;51.194;6.614;2022-10-31T07:52:31;15.20;99.90
5278;DHT22;2662;51.194;6.614;2022-10-31T07:54:59;15.30;99.90
5278;DHT22;2662;51.194;6.614;2022-10-31T07:57:26;15.30;99.90
5278;DHT22;2662;51.194;6.614;2022-10-31T07:59:52;15.50;99.90
5278;DHT22;2662;51.194;6.614;2022-10-31T08:02:21;15.60;99.90
5278;DHT22;2662;51.194;6.614;2022-10-31T08:04:48;15.80;99.90
5278;DHT22;2662;51.194;6.614;2022-10-31T08:07:15;15.90;99.90
5278;DHT22;2662;51.194;6.614;2022-10-31T08:09:42;16.10;99.90
5278;DHT22;2662;51.194;6.614;2022-10-31T08:12:09;16.40;99.90
5278;DHT22;2662;51.194;6.614;2022-10-31T08:14:35;16.70;99.90
5278;DHT22;2662;51.194;6.614;2022-10-31T08:17:02;17.10;99.90
5278;DHT22;2662;51.194;6.614;2022-10-31T08:19:30;17.50;99.90
5278;DHT22;2662;51.194;6.614;2022-10-31T08:21:57;17.90;99.90
5278;DHT22;2662;51.194;6.614;2022-10-31T08:24:30;18.30;99.90
5278;DHT22;2662;51.194;6.614;2022-10-31T08:26:56;18.60;99.90
5278;DHT22;2662;51.194;6.614;2022-10-31T08:29:23;19.20;99.90
5278;DHT22;2662;51.194;6.614;2022-10-31T08:31:50;19.60;99.90
5278;DHT22;2662;51.194;6.614;2022-10-31T08:34:16;19.80;99.90
5278;DHT22;2662;51.194;6.614;2022-10-31T08:36:44;19.80;99.90
5278;DHT22;2662;51.194;6.614;2022-10-31T08:39:11;19.90;99.90
5278;DHT22;2662;51.194;6.614;2022-10-31T08:41:38;19.90;99.90
5278;DHT22;2662;51.194;6.614;2022-10-31T08:44:05;19.70;99.90
5278;DHT22;2662;51.194;6.614;2022-10-31T08:46:31;19.60;99.90
5278;DHT22;2662;51.194;6.614;2022-10-31T08:48:58;19.30;99.90
5278;DHT22;2662;51.194;6.614;2022-10-31T08:51:25;19.20;99.90
5278;DHT22;2662;51.194;6.614;2022-10-31T08:53:53;18.80;99.90
5278;DHT22;2662;51.194;6.614;2022-10-31T08:56:19;18.50;99.90
5278;DHT22;2662;51.194;6.614;2022-10-31T08:58:47;18.40;99.90
5278;DHT22;2662;51.194;6.614;2022-10-31T09:01:14;18.30;99.90
5278;DHT22;2662;51.194;6.614;2022-10-31T09:03:41;18.10;99.90
5278;DHT22;2662;51.194;6.614;2022-10-31T09:06:07;17.90;99.90
5278;DHT22;2662;51.194;6.614;2022-10-31T09:08:35;17.90;99.90
5278;DHT22;2662;51.194;6.614;2022-10-31T09:11:04;17.80;99.90
5278;DHT22;2662;51.194;6.614;2022-10-31T09:13:32;17.70;99.90
5278;DHT22;2662;51.194;6.614;2022-10-31T09:15:58;17.60;99.90
5278;DHT22;2662;51.194;6.614;2022-10-31T09:18:26;17.50;99.90
5278;DHT22;2662;51.194;6.614;2022-10-31T09:20:54;17.50;99.90
5278;DHT22;2662;51.194;6.614;2022-10-31T09:23:22;17.40;99.90
5278;DHT22;2662;51.194;6.614;2022-10-31T09:25:50;17.40;99.90
5278;DHT22;2662;51.194;6.614;2022-10-31T09:28:20;17.60;99.90
5278;DHT22;2662;51.194;6.614;2022-10-31T09:30:48;17.80;99.90
5278;DHT22;2662;51.194;6.614;2022-10-31T09:33:16;18.10;99.90
5278;DHT22;2662;51.194;6.614;2022-10-31T09:35:42;18.60;99.90
5278;DHT22;2662;51.194;6.614;2022-10-31T09:38:11;18.90;99.90
5278;DHT22;2662;51.194;6.614;2022-10-31T09:40:41;19.50;99.90
5278;DHT22;2662;51.194;6.614;2022-10-31T09:43:14;19.90;99.90
5278;DHT22;2662;51.194;6.614;2022-10-31T09:45:51;20.00;99.90
5278;DHT22;2662;51.194;6.614;2022-10-31T09:48:37;20.10;99.90
5278;DHT22;2662;51.194;6.614;2022-10-31T09:51:08;20.40;99.90
5278;DHT22;2662;51.194;6.614;2022-10-31T09:53:39;20.50;99.90
5278;DHT22;2662;51.194;6.614;2022-10-31T09:56:09;20.30;99.90
5278;DHT22;2662;51.194;6.614;2022-10-31T09:58:43;20.30;99.90
5278;DHT22;2662;51.194;6.614;2022-10-31T10:01:22;20.40;99.90
5278;DHT22;2662;51.194;6.614;2022-10-31T10:03:53;20.30;99.90
5278;DHT22;2662;51.194;6.614;2022-10-31T10:06:24;20.10;99.90
5278;DHT22;2662;51.194;6.614;2022-10-31T10:08:52;20.00;99.90
5278;DHT22;2662;51.194;6.614;2022-10-31T10:11:29;20.00;99.90
5278;DHT22;2662;51.194;6.614;2022-10-31T10:14:08;20.00;99.90
5278;DHT22;2662;51.194;6.614;2022-10-31T10:16:49;20.00;99.90
5278;DHT22;2662;51.194;6.614;2022-10-31T10:19:29;19.80;99.90
5278;DHT22;2662;51.194;6.614;2022-10-31T10:22:05;19.80;99.90
5278;DHT22;2662;51.194;6.614;2022-10-31T10:24:48;19.60;99.90
5278;DHT22;2662;51.194;6.614;2022-10-31T10:27:25;19.30;99.90
5278;DHT22;2662;51.194;6.614;2022-10-31T10:30:00;19.10;99.90
5278;DHT22;2662;51.194;6.614;2022-10-31T10:32:31;19.10;99.90
5278;DHT22;2662;51.194;6.614;2022-10-31T10:35:12;19.10;99.90
5278;DHT22;2662;51.194;6.614;2022-10-31T10:37:43;19.10;99.90
5278;DHT22;2662;51.194;6.614;2022-10-31T10:40:15;19.10;99.90
5278;DHT22;2662;51.194;6.614;2022-10-31T10:42:45;19.20;99.90
5278;DHT22;2662;51.194;6.614;2022-10-31T10:45:34;19.40;99.90
5278;DHT22;2662;51.194;6.614;2022-10-31T10:48:29;19.10;99.90
5278;DHT22;2662;51.194;6.614;2022-10-31T10:50:57;19.00;99.90
5278;DHT22;2662;51.194;6.614;2022-10-31T10:53:40;19.00;99.90
5278;DHT22;2662;51.194;6.614;2022-10-31T10:56:34;19.10;99.90
5278;DHT22;2662;51.194;6.614;2022-10-31T10:59:03;19.20;99.90
5278;DHT22;2662;51.194;6.614;2022-10-31T11:01:30;19.30;99.90
5278;DHT22;2662;51.194;6.614;2022-10-31T11:03:58;19.40;99.90
5278;DHT22;2662;51.194;6.614;2022-10-31T11:06:25;19.60;99.90
5278;DHT22;2662;51.194;6.614;2022-10-31T11:08:52;19.70;99.90
5278;DHT22;2662;51.194;6.614;2022-10-31T11:11:24;19.80;99.90
5278;DHT22;2662;51.194;6.614;2022-10-31T11:13:57;19.90;99.90
5278;DHT22;2662;51.194;6.614;2022-10-31T11:16:31;20.10;99.90
5278;DHT22;2662;51.194;6.614;2022-10-31T11:19:12;19.90;99.90
5278;DHT22;2662;51.194;6.614;2022-10-31T11:21:40;20.00;99.90
5278;DHT22;2662;51.194;6.614;2022-10-31T11:24:14;19.90;99.90
5278;DHT22;2662;51.194;6.614;2022-10-31T11:26:44;20.00;99.90
5278;DHT22;2662;51.194;6.614;2022-10-31T11:29:14;20.10;99.90
5278;DHT22;2662;51.194;6.614;2022-10-31T11:31:42;20.30;99.90
5278;DHT22;2662;51.194;6.614;2022-10-31T11:34:26;20.40;99.90
5278;DHT22;2662;51.194;6.614;2022-10-31T11:36:54;20.50;99.90
5278;DHT22;2662;51.194;6.614;2022-10-31T11:39:23;20.60;99.90
5278;DHT22;2662;51.194;6.614;2022-10-31T11:41:52;20.70;99.90
5278;DHT22;2662;51.194;6.614;2022-10-31T11:44:22;20.70;99.90
5278;DHT22;2662;51.194;6.614;2022-10-31T11:46:51;20.80;99.90
5278;DHT22;2662;51.194;6.614;2022-10-31T11:49:26;20.80;99.90
5278;DHT22;2662;51.194;6.614;2022-10-31T11:51:57;20.80;99.90
5278;DHT22;2662;51.194;6.614;2022-10-31T11:54:27;20.70;99.90
5278;DHT22;2662;51.194;6.614;2022-10-31T11:56:55;20.60;99.90
5278;DHT22;2662;51.194;6.614;2022-10-31T11:59:26;20.50;99.90
5278;DHT22;2662;51.194;6.614;2022-10-31T12:01:54;20.70;99.90
5278;DHT22;2662;51.194;6.614;2022-10-31T12:04:34;20.70;99.90
5278;DHT22;2662;51.194;6.614;2022-10-31T12:07:02;20.70;99.90
5278;DHT22;2662;51.194;6.614;2022-10-31T12:09:29;20.70;99.90
5278;DHT22;2662;51.194;6.614;2022-10-31T12:12:11;20.70;99.90
5278;DHT22;2662;51.194;6.614;2022-10-31T12:14:49;20.80;99.90
5278;DHT22;2662;51.194;6.614;2022-10-31T12:17:22;20.90;99.90
5278;DHT22;2662;51.194;6.614;2022-10-31T12:20:00;20.90;99.90
5278;DHT22;2662;51.194;6.614;2022-10-31T12:22:39;21.00;99.90
5278;DHT22;2662;51.194;6.614;2022-10-31T12:25:21;21.00;99.90
5278;DHT22;2662;51.194;6.614;2022-10-31T12:28:00;20.90;99.90
5278;DHT22;2662;51.194;6.614;2022-10-31T12:30:40;21.00;99.90
5278;DHT22;2662;51.194;6.614;2022-10-31T12:33:30;21.00;99.90
5278;DHT22;2662;51.194;6.614;2022-10-31T12:36:14;21.10;99.90
5278;DHT22;2662;51.194;6.614;2022-10-31T12:39:07;21.30;99.90
5278;DHT22;2662;51.194;6.614;2022-10-31T12:41:46;21.40;99.90
5278;DHT22;2662;51.194;6.614;2022-10-31T12:44:30;21.50;99.90
5278;DHT22;2662;51.194;6.614;2022-10-31T12:47:12;21.40;99.90
5278;DHT22;2662;51.194;6.614;2022-10-31T12:49:52;21.30;99.90
5278;DHT22;2662;51.194;6.614;2022-10-31T12:52:31;21.40;99.90
5278;DHT22;2662;51.194;6.614;2022-10-31T12:55:15;21.20;99.90
5278;DHT22;2662;51.194;6.614;2022-10-31T12:57:46;21.10;99.90
5278;DHT22;2662;51.194;6.614;2022-10-31T13:00:15;21.00;99.90
5278;DHT22;2662;51.194;6.614;2022-10-31T13:02:46;20.90;99.90
5278;DHT22;2662;51.194;6.614;2022-10-31T13:05:18;20.70;99.90
5278;DHT22;2662;51.194;6.614;2022-10-31T13:07:52;20.50;99.90
5278;DHT22;2662;51.194;6.614;2022-10-31T13:10:22;20.40;99.90
5278;DHT22;2662;51.194;6.614;2022-10-31T13:12:54;20.40;99.90
5278;DHT22;2662;51.194;6.614;2022-10-31T13:15:23;20.30;99.90
5278;DHT22;2662;51.194;6.614;2022-10-31T13:17:54;20.40;99.90
5278;DHT22;2662;51.194;6.614;2022-10-31T13:20:25;20.50;99.90
5278;DHT22;2662;51.194;6.614;2022-10-31T13:22:59;20.50;99.90
5278;DHT22;2662;51.194;6.614;2022-10-31T13:25:31;20.60;99.90
5278;DHT22;2662;51.194;6.614;2022-10-31T13:28:00;20.70;99.90
5278;DHT22;2662;51.194;6.614;2022-10-31T13:30:31;20.80;99.90
5278;DHT22;2662;51.194;6.614;2022-10-31T13:33:01;20.90;99.90
5278;DHT22;2662;51.194;6.614;2022-10-31T13:35:40;20.90;99.90
5278;DHT22;2662;51.194;6.614;2022-10-31T13:38:18;21.00;99.90
5278;DHT22;2662;51.194;6.614;2022-10-31T13:40:52;21.00;99.90
5278;DHT22;2662;51.194;6.614;2022-10-31T13:43:27;21.00;99.90
5278;DHT22;2662;51.194;6.614;2022-10-31T13:45:55;21.00;99.90
5278;DHT22;2662;51.194;6.614;2022-10-31T13:48:39;21.00;99.90
5278;DHT22;2662;51.194;6.614;2022-10-31T13:51:10;21.10;99.90
5278;DHT22;2662;51.194;6.614;2022-10-31T13:53:41;21.20;99.90
5278;DHT22;2662;51.194;6.614;2022-10-31T13:56:18;21.10;99.90
5278;DHT22;2662;51.194;6.614;2022-10-31T13:58:59;21.00;99.90
5278;DHT22;2662;51.194;6.614;2022-10-31T14:01:26;21.00;99.90
5278;DHT22;2662;51.194;6.614;2022-10-31T14:04:00;20.90;99.90
5278;DHT22;2662;51.194;6.614;2022-10-31T14:06:37;20.70;99.90
5278;DHT22;2662;51.194;6.614;2022-10-31T14:09:18;20.70;99.90
5278;DHT22;2662;51.194;6.614;2022-10-31T14:11:46;20.60;99.90
5278;DHT22;2662;51.194;6.614;2022-10-31T14:14:14;20.50;99.90
5278;DHT22;2662;51.194;6.614;2022-10-31T14:16:43;20.40;99.90
5278;DHT22;2662;51.194;6.614;2022-10-31T14:19:15;20.40;99.90
5278;DHT22;2662;51.194;6.614;2022-10-31T14:21:44;20.30;99.90
5278;DHT22;2662;51.194;6.614;2022-10-31T14:24:31;20.30;99.90
5278;DHT22;2662;51.194;6.614;2022-10-31T14:26:59;20.20;99.90
5278;DHT22;2662;51.194;6.614;2022-10-31T14:29:28;20.20;99.90
5278;DHT22;2662;51.194;6.614;2022-10-31T14:31:58;20.30;99.90
5278;DHT22;2662;51.194;6.614;2022-10-31T14:34:27;20.20;99.90
5278;DHT22;2662;51.194;6.614;2022-10-31T14:37:19;20.20;99.90
5278;DHT22;2662;51.194;6.614;2022-10-31T14:39:58;20.10;99.90
5278;DHT22;2662;51.194;6.614;2022-10-31T14:42:39;20.10;99.90
5278;DHT22;2662;51.194;6.614;2022-10-31T14:45:30;20.20;99.90
5278;DHT22;2662;51.194;6.614;2022-10-31T14:48:10;20.20;99.90
5278;DHT22;2662;51.194;6.614;2022-10-31T14:50:43;20.30;99.90
5278;DHT22;2662;51.194;6.614;2022-10-31T14:53:16;20.20;99.90
5278;DHT22;2662;51.194;6.614;2022-10-31T14:55:48;20.20;99.90
5278;DHT22;2662;51.194;6.614;2022-10-31T14:58:19;20.20;99.90
5278;DHT22;2662;51.194;6.614;2022-10-31T15:00:46;20.20;99.90
5278;DHT22;2662;51.194;6.614;2022-10-31T15:03:15;20.30;99.90
5278;DHT22;2662;51.194;6.614;2022-10-31T15:05:46;20.30;99.90
5278;DHT22;2662;51.194;6.614;2022-10-31T15:08:27;20.30;99.90
5278;DHT22;2662;51.194;6.614;2022-10-31T15:10:56;20.20;99.90
5278;DHT22;2662;51.194;6.614;2022-10-31T15:13:23;20.20;99.90
5278;DHT22;2662;51.194;6.614;2022-10-31T15:15:52;20.20;99.90
5278;DHT22;2662;51.194;6.614;2022-10-31T15:18:22;20.10;99.90
5278;DHT22;2662;51.194;6.614;2022-10-31T15:20:50;20.00;99.90
5278;DHT22;2662;51.194;6.614;2022-10-31T15:23:21;20.00;99.90
5278;DHT22;2662;51.194;6.614;2022-10-31T15:25:49;20.00;99.90
5278;DHT22;2662;51.194;6.614;2022-10-31T15:28:22;20.00;99.90
5278;DHT22;2662;51.194;6.614;2022-10-31T15:30:51;20.00;99.90
5278;DHT22;2662;51.194;6.614;2022-10-31T15:33:20;20.00;99.90
5278;DHT22;2662;51.194;6.614;2022-10-31T15:35:55;20.00;99.90
5278;DHT22;2662;51.194;6.614;2022-10-31T15:38:23;19.90;99.90
5278;DHT22;2662;51.194;6.614;2022-10-31T15:40:54;19.90;99.90
5278;DHT22;2662;51.194;6.614;2022-10-31T15:43:23;19.80;99.90
5278;DHT22;2662;51.194;6.614;2022-10-31T15:45:50;19.80;99.90
5278;DHT22;2662;51.194;6.614;2022-10-31T15:48:18;19.80;99.90
5278;DHT22;2662;51.194;6.614;2022-10-31T15:50:48;19.70;99.90
5278;DHT22;2662;51.194;6.614;2022-10-31T15:53:17;19.70;99.90
5278;DHT22;2662;51.194;6.614;2022-10-31T15:55:49;19.70;99.90
5278;DHT22;2662;51.194;6.614;2022-10-31T15:58:17;19.60;99.90
5278;DHT22;2662;51.194;6.614;2022-10-31T16:00:57;19.60;99.90
5278;DHT22;2662;51.194;6.614;2022-10-31T16:03:25;19.50;99.90
5278;DHT22;2662;51.194;6.614;2022-10-31T16:05:54;19.50;99.90
5278;DHT22;2662;51.194;6.614;2022-10-31T16:08:44;19.50;99.90
5278;DHT22;2662;51.194;6.614;2022-10-31T16:11:18;19.50;99.90
5278;DHT22;2662;51.194;6.614;2022-10-31T16:13:56;19.40;99.90
5278;DHT22;2662;51.194;6.614;2022-10-31T16:16:25;19.40;99.90
5278;DHT22;2662;51.194;6.614;2022-10-31T16:18:53;19.40;99.90
5278;DHT22;2662;51.194;6.614;2022-10-31T16:21:26;19.30;99.90
5278;DHT22;2662;51.194;6.614;2022-10-31T16:23:58;19.30;99.90
5278;DHT22;2662;51.194;6.614;2022-10-31T16:26:26;19.20;99.90
5278;DHT22;2662;51.194;6.614;2022-10-31T16:28:55;19.20;99.90
5278;DHT22;2662;51.194;6.614;2022-10-31T16:31:29;19.10;99.90